createdAt,value
2023-01-09T00:02:26.396Z,100516.05
2023-01-09T00:04:53.347Z,100508.50
2023-01-09T00:07:20.267Z,100506.92
2023-01-09T00:09:47.269Z,100505.33
2023-01-09T00:12:14.155Z,100508.09
2023-01-09T00:14:41.206Z,100508.22
2023-01-09T00:17:08.084Z,100507.73
2023-01-09T00:19:35.016Z,100515.16
2023-01-09T00:22:02.057Z,100515.14
2023-01-09T00:24:29.066Z,100516.89
2023-01-09T00:26:56.021Z,100517.45
2023-01-09T00:29:22.968Z,100513.53
2023-01-09T00:31:50.039Z,100510.96
2023-01-09T00:34:16.954Z,100511.11
2023-01-09T00:36:43.825Z,100511.70
2023-01-09T00:39:10.730Z,100514.60
2023-01-09T00:41:39.623Z,100504.92
2023-01-09T00:44:09.872Z,100494.81
2023-01-09T00:46:38.939Z,100493.90
2023-01-09T00:49:06.096Z,100493.56
2023-01-09T00:51:32.999Z,100485.80
2023-01-09T00:54:00.020Z,100475.23
2023-01-09T00:56:26.908Z,100465.13
2023-01-09T00:58:53.829Z,100462.08
2023-01-09T01:01:20.915Z,100465.80
2023-01-09T01:03:48.596Z,100461.11
2023-01-09T01:06:34.184Z,100455.99
2023-01-09T01:09:01.107Z,100449.35
2023-01-09T01:11:28.067Z,100454.19
2023-01-09T01:13:58.114Z,100452.16
2023-01-09T01:16:25.226Z,100452.30
2023-01-09T01:18:52.194Z,100444.11
2023-01-09T01:21:19.145Z,100438.84
2023-01-09T01:23:46.147Z,100432.89
2023-01-09T01:26:15.889Z,100427.84
2023-01-09T01:28:42.829Z,100429.91
2023-01-09T01:31:15.404Z,100423.00
2023-01-09T01:33:42.279Z,100415.21
2023-01-09T01:36:12.112Z,100408.60
2023-01-09T01:38:39.087Z,100402.84
2023-01-09T01:41:07.215Z,100406.16
2023-01-09T01:43:54.648Z,100400.07
2023-01-09T01:46:21.695Z,100396.84
2023-01-09T01:48:49.669Z,100403.61
2023-01-09T01:51:17.220Z,100407.41
2023-01-09T01:53:49.758Z,100397.48
2023-01-09T01:56:38.164Z,100396.56
2023-01-09T01:59:26.768Z,100398.93
2023-01-09T02:01:56.798Z,100394.45
2023-01-09T02:04:23.913Z,100389.80
2023-01-09T02:06:52.213Z,100386.80
2023-01-09T02:09:22.821Z,100374.98
2023-01-09T02:11:52.532Z,100368.50
2023-01-09T02:14:20.571Z,100371.02
2023-01-09T02:17:02.743Z,100367.21
2023-01-09T02:19:41.946Z,100365.66
2023-01-09T02:22:08.866Z,100355.99
2023-01-09T02:24:57.863Z,100354.79
2023-01-09T02:27:43.141Z,100349.33
2023-01-09T02:30:25.595Z,100340.33
2023-01-09T02:33:09.125Z,100342.56
2023-01-09T02:35:46.593Z,100346.63
2023-01-09T02:38:17.558Z,100338.38
2023-01-09T02:41:06.195Z,100347.01
2023-01-09T02:43:33.157Z,100343.36
2023-01-09T02:46:00.062Z,100343.09
2023-01-09T02:48:27.097Z,100344.52
2023-01-09T02:51:01.392Z,100345.64
2023-01-09T02:53:32.981Z,100341.25
2023-01-09T02:56:26.695Z,100338.16
2023-01-09T02:59:11.021Z,100339.98
2023-01-09T03:02:12.348Z,100336.05
2023-01-09T03:04:42.308Z,100334.09
2023-01-09T03:07:31.915Z,100338.00
2023-01-09T03:10:13.943Z,100343.30
2023-01-09T03:12:40.867Z,100337.16
2023-01-09T03:15:07.957Z,100339.11
2023-01-09T03:17:39.044Z,100335.27
2023-01-09T03:20:07.415Z,100337.86
2023-01-09T03:22:34.337Z,100338.55
2023-01-09T03:25:01.196Z,100330.41
2023-01-09T03:27:28.048Z,100325.83
2023-01-09T03:29:56.657Z,100316.36
2023-01-09T03:32:23.803Z,100319.34
2023-01-09T03:34:50.914Z,100319.07
2023-01-09T03:37:17.862Z,100320.01
2023-01-09T03:39:44.776Z,100316.71
2023-01-09T03:42:14.750Z,100310.56
2023-01-09T03:44:41.712Z,100310.39
2023-01-09T03:47:08.569Z,100310.71
2023-01-09T03:49:35.564Z,100312.47
2023-01-09T03:52:02.753Z,100312.30
2023-01-09T03:54:29.692Z,100309.55
2023-01-09T03:56:56.637Z,100316.47
2023-01-09T03:59:25.632Z,100313.55
2023-01-09T04:01:52.639Z,100307.91
2023-01-09T04:04:19.718Z,100303.58
2023-01-09T04:06:46.623Z,100303.60
2023-01-09T04:09:13.540Z,100302.61
2023-01-09T04:11:40.353Z,100301.17
2023-01-09T04:14:07.332Z,100295.58
2023-01-09T04:16:34.474Z,100300.25
2023-01-09T04:19:01.531Z,100292.05
2023-01-09T04:21:28.452Z,100288.42
2023-01-09T04:23:55.433Z,100290.46
2023-01-09T04:26:22.335Z,100286.39
2023-01-09T04:28:49.336Z,100284.59
2023-01-09T04:31:16.544Z,100280.98
2023-01-09T04:33:43.560Z,100278.63
2023-01-09T04:36:10.492Z,100270.59
2023-01-09T04:38:37.471Z,100270.81
2023-01-09T04:41:04.438Z,100272.40
2023-01-09T04:43:31.266Z,100271.19
2023-01-09T04:45:58.269Z,100271.72
2023-01-09T04:48:25.141Z,100266.05
2023-01-09T04:50:52.049Z,100267.16
2023-01-09T04:53:19.055Z,100269.44
2023-01-09T04:55:45.961Z,100270.95
2023-01-09T04:58:13.023Z,100267.56
2023-01-09T05:00:39.980Z,100264.20
2023-01-09T05:03:06.927Z,100270.39
2023-01-09T05:05:33.815Z,100263.77
2023-01-09T05:08:00.680Z,100267.94
2023-01-09T05:10:27.575Z,100269.66
2023-01-09T05:12:54.461Z,100270.17
2023-01-09T05:15:21.987Z,100267.95
2023-01-09T05:17:48.872Z,100266.50
2023-01-09T05:20:15.851Z,100270.16
2023-01-09T05:22:42.856Z,100274.22
2023-01-09T05:25:10.182Z,100269.71
2023-01-09T05:27:37.145Z,100266.19
2023-01-09T05:30:04.420Z,100262.80
2023-01-09T05:32:31.327Z,100263.92
2023-01-09T05:34:58.252Z,100256.31
2023-01-09T05:37:25.139Z,100251.23
2023-01-09T05:39:52.047Z,100250.01
2023-01-09T05:42:18.930Z,100247.27
2023-01-09T05:44:45.884Z,100238.73
2023-01-09T05:47:12.889Z,100244.88
2023-01-09T05:49:39.803Z,100248.46
2023-01-09T05:52:08.041Z,100252.15
2023-01-09T05:54:34.924Z,100250.80
2023-01-09T05:57:01.809Z,100246.94
2023-01-09T05:59:28.716Z,100246.48
2023-01-09T06:01:55.750Z,100247.89
2023-01-09T06:04:22.980Z,100246.77
2023-01-09T06:06:49.918Z,100248.84
2023-01-09T06:09:16.726Z,100241.91
2023-01-09T06:11:43.602Z,100243.33
2023-01-09T06:14:10.646Z,100246.21
2023-01-09T06:16:37.590Z,100244.88
2023-01-09T06:19:06.050Z,100236.43
2023-01-09T06:21:33.606Z,100238.52
2023-01-09T06:24:00.514Z,100238.26
2023-01-09T06:26:27.620Z,100237.05
2023-01-09T06:28:57.458Z,100236.98
2023-01-09T06:31:25.046Z,100240.25
2023-01-09T06:33:52.087Z,100238.66
2023-01-09T06:36:20.418Z,100237.02
2023-01-09T06:38:48.542Z,100236.80
2023-01-09T06:41:15.443Z,100237.99
2023-01-09T06:43:42.359Z,100237.48
2023-01-09T06:46:09.872Z,100235.13
2023-01-09T06:48:36.812Z,100231.40
2023-01-09T06:51:03.846Z,100223.06
2023-01-09T06:53:30.879Z,100220.95
2023-01-09T06:55:57.856Z,100224.60
2023-01-09T06:58:25.138Z,100229.52
2023-01-09T07:00:53.840Z,100235.02
2023-01-09T07:03:22.477Z,100237.38
2023-01-09T07:05:49.557Z,100234.97
2023-01-09T07:08:16.582Z,100233.50
2023-01-09T07:10:43.979Z,100233.52
2023-01-09T07:13:11.306Z,100231.00
2023-01-09T07:15:38.406Z,100226.80
2023-01-09T07:18:05.386Z,100223.31
2023-01-09T07:20:32.280Z,100222.55
2023-01-09T07:22:59.195Z,100227.14
2023-01-09T07:25:26.258Z,100224.38
2023-01-09T07:27:53.145Z,100223.04
2023-01-09T07:30:20.241Z,100216.67
2023-01-09T07:32:47.235Z,100218.30
2023-01-09T07:35:14.339Z,100223.04
2023-01-09T07:37:43.177Z,100223.45
2023-01-09T07:40:11.311Z,100229.02
2023-01-09T07:42:38.363Z,100226.73
2023-01-09T07:45:06.655Z,100224.23
2023-01-09T07:47:33.679Z,100223.98
2023-01-09T07:50:00.744Z,100224.98
2023-01-09T07:52:28.192Z,100225.19
2023-01-09T07:54:55.448Z,100223.71
2023-01-09T07:57:22.802Z,100228.36
2023-01-09T07:59:49.978Z,100226.64
2023-01-09T08:02:18.371Z,100231.31
2023-01-09T08:04:45.481Z,100228.89
2023-01-09T08:07:12.512Z,100227.17
2023-01-09T08:09:39.453Z,100235.89
2023-01-09T08:12:06.687Z,100230.48
2023-01-09T08:14:36.037Z,100229.11
2023-01-09T08:17:03.156Z,100229.52
2023-01-09T08:19:30.099Z,100227.31
2023-01-09T08:21:57.142Z,100227.10
2023-01-09T08:24:24.079Z,100225.83
2023-01-09T08:26:50.995Z,100230.07
2023-01-09T08:29:18.060Z,100228.52
2023-01-09T08:31:45.154Z,100221.59
2023-01-09T08:34:12.174Z,100219.05
2023-01-09T08:36:39.083Z,100211.20
2023-01-09T08:39:06.123Z,100205.46
2023-01-09T08:41:51.826Z,100202.81
2023-01-09T08:44:37.511Z,100197.96
2023-01-09T08:47:07.273Z,100190.05
2023-01-09T08:49:38.525Z,100181.98
2023-01-09T08:52:06.279Z,100180.14
2023-01-09T08:54:33.994Z,100176.35
2023-01-09T08:57:01.041Z,100169.95
2023-01-09T08:59:28.272Z,100167.08
2023-01-09T09:01:55.269Z,100165.96
2023-01-09T09:04:22.314Z,100159.77
2023-01-09T09:06:49.256Z,100159.51
2023-01-09T09:09:16.210Z,100154.47
2023-01-09T09:11:43.267Z,100154.94
2023-01-09T09:14:29.077Z,100155.34
2023-01-09T09:16:56.086Z,100154.52
2023-01-09T09:19:23.340Z,100150.58
2023-01-09T09:21:50.278Z,100146.05
2023-01-09T09:24:17.275Z,100145.63
2023-01-09T09:26:44.731Z,100138.34
2023-01-09T09:29:12.091Z,100131.93
2023-01-09T09:31:39.076Z,100130.67
2023-01-09T09:34:06.887Z,100136.80
2023-01-09T09:36:34.068Z,100138.84
2023-01-09T09:39:02.808Z,100137.88
2023-01-09T09:41:51.587Z,100137.63
2023-01-09T09:44:54.387Z,100134.30
2023-01-09T09:47:40.735Z,100132.40
2023-01-09T09:50:10.956Z,100130.52
2023-01-09T09:52:57.468Z,100126.52
2023-01-09T09:55:32.667Z,100127.27
2023-01-09T09:58:01.564Z,100124.83
2023-01-09T10:00:28.821Z,100122.07
2023-01-09T10:03:02.434Z,100119.27
2023-01-09T10:05:31.472Z,100112.11
2023-01-09T10:08:15.320Z,100116.49
2023-01-09T10:10:47.291Z,100107.58
2023-01-09T10:13:35.978Z,100105.25
2023-01-09T10:16:14.573Z,100108.17
2023-01-09T10:19:08.431Z,100094.08
2023-01-09T10:21:48.711Z,100091.63
2023-01-09T10:24:31.801Z,100088.49
2023-01-09T10:26:58.737Z,100091.57
2023-01-09T10:29:48.041Z,100091.88
2023-01-09T10:32:39.568Z,100087.64
2023-01-09T10:35:39.277Z,100086.71
2023-01-09T10:38:13.983Z,100078.40
2023-01-09T10:40:51.367Z,100080.55
2023-01-09T10:44:17.448Z,100079.94
2023-01-09T10:46:49.490Z,100078.78
2023-01-09T10:49:17.170Z,100077.27
2023-01-09T10:51:49.103Z,100075.40
2023-01-09T10:54:23.533Z,100075.36
2023-01-09T10:57:05.466Z,100073.20
2023-01-09T10:59:33.264Z,100071.86
2023-01-09T11:02:02.084Z,100068.40
2023-01-09T11:04:34.737Z,100071.42
2023-01-09T11:07:20.969Z,100070.76
2023-01-09T11:09:58.749Z,100069.08
2023-01-09T11:12:27.586Z,100077.04
2023-01-09T11:14:54.597Z,100067.95
2023-01-09T11:17:30.675Z,100070.44
2023-01-09T11:20:05.557Z,100063.19
2023-01-09T11:22:43.787Z,100056.40
2023-01-09T11:25:13.016Z,100059.13
2023-01-09T11:27:39.948Z,100059.42
2023-01-09T11:30:13.236Z,100052.27
2023-01-09T11:32:40.212Z,100056.58
2023-01-09T11:35:15.428Z,100051.55
2023-01-09T11:37:42.447Z,100062.02
2023-01-09T11:40:17.484Z,100055.76
2023-01-09T11:43:02.958Z,100055.48
2023-01-09T11:45:34.698Z,100053.86
2023-01-09T11:48:04.062Z,100052.61
2023-01-09T11:50:31.174Z,100053.49
2023-01-09T11:53:24.799Z,100053.28
2023-01-09T11:56:01.393Z,100048.02
2023-01-09T11:58:33.529Z,100053.98
2023-01-09T12:01:12.685Z,100050.67
2023-01-09T12:04:17.210Z,100043.39
2023-01-09T12:06:44.138Z,100044.12
2023-01-09T12:09:35.550Z,100047.98
2023-01-09T12:12:07.870Z,100045.91
2023-01-09T12:15:13.707Z,100043.65
2023-01-09T12:17:57.000Z,100035.40
2023-01-09T12:20:35.627Z,100035.82
2023-01-09T12:23:31.995Z,100037.45
2023-01-09T12:26:04.770Z,100033.73
2023-01-09T12:28:37.734Z,100030.29
2023-01-09T12:31:16.095Z,100030.63
2023-01-09T12:34:21.963Z,100033.41
2023-01-09T12:36:59.436Z,100036.88
2023-01-09T12:40:02.044Z,100035.83
2023-01-09T12:42:35.177Z,100030.55
2023-01-09T12:45:05.182Z,100033.27
2023-01-09T12:47:48.179Z,100032.83
2023-01-09T12:50:15.091Z,100031.70
2023-01-09T12:52:49.196Z,100038.55
2023-01-09T12:55:18.905Z,100040.02
2023-01-09T12:57:50.212Z,100042.19
2023-01-09T13:00:42.259Z,100047.45
2023-01-09T13:03:18.417Z,100050.86
2023-01-09T13:05:50.106Z,100050.30
2023-01-09T13:08:39.893Z,100045.66
2023-01-09T13:11:20.405Z,100048.36
2023-01-09T13:13:50.156Z,100047.60
2023-01-09T13:16:27.152Z,100042.91
2023-01-09T13:19:03.526Z,100047.54
2023-01-09T13:21:30.585Z,100046.53
2023-01-09T13:24:16.516Z,100042.59
2023-01-09T13:26:46.336Z,100045.65
2023-01-09T13:29:17.025Z,100046.96
2023-01-09T13:31:57.813Z,100051.38
2023-01-09T13:34:25.789Z,100046.75
2023-01-09T13:36:54.242Z,100046.48
2023-01-09T13:39:23.367Z,100048.80
2023-01-09T13:42:16.186Z,100046.08
2023-01-09T13:44:43.099Z,100054.65
2023-01-09T13:47:21.643Z,100058.11
2023-01-09T13:49:48.485Z,100058.58
2023-01-09T13:52:24.878Z,100057.83
2023-01-09T13:54:51.773Z,100053.27
2023-01-09T13:57:18.816Z,100052.91
2023-01-09T13:59:48.568Z,100047.17
2023-01-09T14:02:34.193Z,100050.73
2023-01-09T14:05:11.805Z,100052.45
2023-01-09T14:07:42.945Z,100057.64
2023-01-09T14:10:24.329Z,100061.33
2023-01-09T14:12:52.270Z,100062.61
2023-01-09T14:15:28.263Z,100054.83
2023-01-09T14:18:02.717Z,100051.94
2023-01-09T14:20:38.185Z,100056.30
2023-01-09T14:23:28.299Z,100057.58
2023-01-09T14:25:52.825Z,100056.13
2023-01-09T14:28:30.062Z,100050.19
2023-01-09T14:30:57.016Z,100048.11
2023-01-09T14:33:25.415Z,100050.40
2023-01-09T14:35:56.710Z,100053.22
2023-01-09T14:38:32.901Z,100050.33
2023-01-09T14:41:42.948Z,100053.59
2023-01-09T14:44:29.112Z,100056.37
2023-01-09T14:46:59.501Z,100057.17
2023-01-09T14:49:41.168Z,100061.95
2023-01-09T14:52:21.988Z,100069.98
2023-01-09T14:54:48.888Z,100073.05
2023-01-09T14:57:34.845Z,100068.57
2023-01-09T15:00:03.242Z,100069.59
2023-01-09T15:02:39.330Z,100070.63
2023-01-09T15:05:09.661Z,100067.41
2023-01-09T15:07:44.565Z,100063.41
2023-01-09T15:10:20.406Z,100062.21
2023-01-09T15:12:48.249Z,100064.28
2023-01-09T15:15:15.502Z,100073.23
2023-01-09T15:17:45.282Z,100076.95
2023-01-09T15:20:22.334Z,100075.86
2023-01-09T15:22:52.784Z,100077.41
2023-01-09T15:25:33.890Z,100066.48
2023-01-09T15:28:28.439Z,100066.58
2023-01-09T15:31:07.822Z,100065.14
2023-01-09T15:33:34.825Z,100067.02
2023-01-09T15:36:02.850Z,100062.90
2023-01-09T15:38:31.564Z,100060.70
2023-01-09T15:41:00.549Z,100057.81
2023-01-09T15:43:28.445Z,100059.05
2023-01-09T15:45:58.741Z,100055.95
2023-01-09T15:48:32.115Z,100050.27
2023-01-09T15:51:14.483Z,100050.27
2023-01-09T15:53:41.720Z,100050.36
2023-01-09T15:56:20.350Z,100050.71
2023-01-09T15:58:48.771Z,100054.76
2023-01-09T16:01:21.955Z,100052.11
2023-01-09T16:03:48.985Z,100049.77
2023-01-09T16:06:29.348Z,100046.39
2023-01-09T16:08:59.924Z,100047.70
2023-01-09T16:11:33.849Z,100047.70
2023-01-09T16:14:10.897Z,100048.90
2023-01-09T16:16:38.196Z,100053.78
2023-01-09T16:19:05.322Z,100049.02
2023-01-09T16:21:36.664Z,100053.02
2023-01-09T16:24:44.235Z,100044.36
2023-01-09T16:27:17.467Z,100041.09
2023-01-09T16:29:49.985Z,100044.11
2023-01-09T16:32:30.787Z,100045.67
2023-01-09T16:35:06.521Z,100046.46
2023-01-09T16:37:33.905Z,100044.61
2023-01-09T16:40:22.297Z,100042.13
2023-01-09T16:43:07.416Z,100039.23
2023-01-09T16:45:41.227Z,100040.33
2023-01-09T16:48:13.853Z,100041.77
2023-01-09T16:50:41.218Z,100041.92
2023-01-09T16:53:17.699Z,100039.14
2023-01-09T16:55:45.858Z,100044.58
2023-01-09T16:58:18.873Z,100044.78
2023-01-09T17:00:46.128Z,100045.23
2023-01-09T17:03:14.607Z,100044.94
2023-01-09T17:05:41.684Z,100044.74
2023-01-09T17:08:24.183Z,100048.34
2023-01-09T17:10:54.448Z,100046.73
2023-01-09T17:13:21.394Z,100051.43
2023-01-09T17:15:48.448Z,100053.27
2023-01-09T17:18:16.677Z,100053.44
2023-01-09T17:20:45.013Z,100053.48
2023-01-09T17:23:12.240Z,100052.73
2023-01-09T17:25:58.142Z,100048.83
2023-01-09T17:28:33.853Z,100046.61
2023-01-09T17:31:06.127Z,100046.71
2023-01-09T17:33:33.557Z,100049.84
2023-01-09T17:36:02.213Z,100055.02
2023-01-09T17:38:29.254Z,100058.54
2023-01-09T17:40:56.248Z,100055.36
2023-01-09T17:43:23.278Z,100045.80
2023-01-09T17:45:50.449Z,100050.84
2023-01-09T17:48:21.599Z,100053.61
2023-01-09T17:50:48.844Z,100053.05
2023-01-09T17:53:20.886Z,100046.34
2023-01-09T17:55:53.858Z,100040.70
2023-01-09T17:58:26.190Z,100033.52
2023-01-09T18:00:53.433Z,100035.35
2023-01-09T18:03:23.182Z,100027.10
2023-01-09T18:05:50.196Z,100019.38
2023-01-09T18:08:20.289Z,100015.39
2023-01-09T18:10:48.737Z,100018.50
2023-01-09T18:13:16.539Z,100023.30
2023-01-09T18:15:45.325Z,100025.52
2023-01-09T18:18:13.236Z,100017.06
2023-01-09T18:20:50.506Z,100022.13
2023-01-09T18:23:17.631Z,100016.49
2023-01-09T18:25:44.613Z,100021.34
2023-01-09T18:28:15.291Z,100023.22
2023-01-09T18:30:45.761Z,100019.18
2023-01-09T18:33:15.935Z,100018.52
2023-01-09T18:35:45.940Z,100022.52
2023-01-09T18:38:13.859Z,100016.89
2023-01-09T18:40:42.070Z,100013.16
2023-01-09T18:43:09.568Z,100004.58
2023-01-09T18:45:39.151Z,100006.27
2023-01-09T18:48:07.745Z,100003.84
2023-01-09T18:50:35.752Z,99996.16
2023-01-09T18:53:04.948Z,99989.88
2023-01-09T18:55:31.873Z,99982.31
2023-01-09T18:57:58.860Z,99990.24
2023-01-09T19:00:28.391Z,99985.02
2023-01-09T19:02:55.351Z,99984.56
2023-01-09T19:05:22.384Z,99989.16
2023-01-09T19:07:49.200Z,99994.98
2023-01-09T19:10:16.544Z,99998.06
2023-01-09T19:12:43.402Z,99987.81
2023-01-09T19:15:11.829Z,99992.63
2023-01-09T19:17:39.233Z,99994.42
2023-01-09T19:20:06.892Z,99992.59
2023-01-09T19:22:33.803Z,99993.94
2023-01-09T19:25:00.892Z,99990.83
2023-01-09T19:27:31.071Z,99989.96
2023-01-09T19:29:58.030Z,99987.88
2023-01-09T19:32:25.877Z,99999.04
2023-01-09T19:34:52.775Z,100002.67
2023-01-09T19:37:19.742Z,99998.41
2023-01-09T19:39:47.164Z,100004.27
2023-01-09T19:42:14.639Z,100009.77
2023-01-09T19:44:41.508Z,100008.10
2023-01-09T19:47:08.606Z,100011.23
2023-01-09T19:49:35.564Z,100010.25
2023-01-09T19:52:05.122Z,100006.77
2023-01-09T19:54:33.027Z,100009.39
2023-01-09T19:56:59.879Z,100014.42
2023-01-09T19:59:26.783Z,100017.55
2023-01-09T20:01:58.578Z,100014.90
2023-01-09T20:04:26.942Z,100012.45
2023-01-09T20:06:54.226Z,100015.23
2023-01-09T20:09:22.724Z,100012.45
2023-01-09T20:11:49.783Z,100000.71
2023-01-09T20:14:18.743Z,99999.33
2023-01-09T20:16:49.317Z,99998.80
2023-01-09T20:19:23.318Z,99999.41
2023-01-09T20:21:53.148Z,99995.35
2023-01-09T20:24:20.208Z,100000.42
2023-01-09T20:26:47.199Z,100004.26
2023-01-09T20:29:17.653Z,100001.85
2023-01-09T20:31:44.653Z,100007.36
2023-01-09T20:34:12.255Z,100003.82
2023-01-09T20:36:39.455Z,100003.53
2023-01-09T20:39:07.389Z,100003.61
2023-01-09T20:41:34.457Z,100006.64
2023-01-09T20:44:03.295Z,100006.14
2023-01-09T20:46:31.316Z,99998.24
2023-01-09T20:48:58.770Z,100002.48
2023-01-09T20:51:51.130Z,100008.59
2023-01-09T20:54:19.050Z,100004.91
2023-01-09T20:56:46.000Z,99994.65
2023-01-09T20:59:14.494Z,100002.98
2023-01-09T21:01:41.736Z,99999.71
2023-01-09T21:04:09.050Z,100006.19
2023-01-09T21:06:36.294Z,100005.89
2023-01-09T21:09:04.230Z,100007.33
2023-01-09T21:11:31.287Z,100015.63
2023-01-09T21:14:01.625Z,100019.35
2023-01-09T21:16:28.792Z,100021.89
2023-01-09T21:18:55.863Z,100017.59
2023-01-09T21:21:24.756Z,100020.48
2023-01-09T21:23:53.527Z,100017.59
2023-01-09T21:26:26.133Z,100013.02
2023-01-09T21:28:55.171Z,100020.84
2023-01-09T21:31:30.039Z,100025.83
2023-01-09T21:33:57.151Z,100024.42
2023-01-09T21:36:24.212Z,100023.00
2023-01-09T21:38:54.129Z,100028.85
2023-01-09T21:41:39.963Z,100030.82
2023-01-09T21:44:25.703Z,100033.59
2023-01-09T21:46:52.701Z,100028.41
2023-01-09T21:49:20.449Z,100032.27
2023-01-09T21:51:47.711Z,100034.76
2023-01-09T21:54:14.695Z,100031.20
2023-01-09T21:56:41.610Z,100035.70
2023-01-09T21:59:08.807Z,100034.42
2023-01-09T22:01:35.874Z,100032.30
2023-01-09T22:04:03.152Z,100037.46
2023-01-09T22:06:30.250Z,100037.50
2023-01-09T22:08:57.181Z,100037.75
2023-01-09T22:11:29.213Z,100044.45
2023-01-09T22:13:57.664Z,100045.63
2023-01-09T22:16:26.887Z,100048.70
2023-01-09T22:18:55.091Z,100047.14
2023-01-09T22:21:23.100Z,100048.69
2023-01-09T22:23:50.055Z,100049.69
2023-01-09T22:26:17.267Z,100052.58
2023-01-09T22:28:45.014Z,100044.38
2023-01-09T22:31:16.708Z,100048.11
2023-01-09T22:33:43.733Z,100044.80
2023-01-09T22:36:11.571Z,100046.58
2023-01-09T22:38:38.469Z,100052.39
2023-01-09T22:41:05.891Z,100053.39
2023-01-09T22:43:32.912Z,100057.98
2023-01-09T22:46:04.695Z,100058.90
2023-01-09T22:48:32.488Z,100062.33
2023-01-09T22:51:02.475Z,100058.16
2023-01-09T22:53:29.398Z,100059.88
2023-01-09T22:56:00.589Z,100060.16
2023-01-09T22:58:28.112Z,100065.42
2023-01-09T23:00:55.010Z,100067.16
2023-01-09T23:03:22.195Z,100069.66
2023-01-09T23:05:49.131Z,100069.82
2023-01-09T23:08:16.161Z,100070.48
2023-01-09T23:10:43.142Z,100072.75
2023-01-09T23:13:10.437Z,100075.64
2023-01-09T23:15:37.365Z,100070.77
2023-01-09T23:18:04.339Z,100072.27
2023-01-09T23:20:31.262Z,100079.11
2023-01-09T23:22:59.785Z,100075.55
2023-01-09T23:25:26.900Z,100070.87
2023-01-09T23:27:55.632Z,100075.23
2023-01-09T23:30:22.640Z,100071.65
2023-01-09T23:32:49.672Z,100077.45
2023-01-09T23:35:16.815Z,100079.35
2023-01-09T23:37:43.796Z,100077.84
2023-01-09T23:40:14.197Z,100072.25
2023-01-09T23:42:59.927Z,100070.17
2023-01-09T23:45:27.018Z,100073.07
2023-01-09T23:47:54.174Z,100073.19
2023-01-09T23:50:21.203Z,100083.34
2023-01-09T23:52:48.423Z,100079.88
2023-01-09T23:55:15.572Z,100074.37
2023-01-09T23:57:42.871Z,100079.55
